sensor_id;sensor_type;location;lat;lon;timestamp;P1;durP1;ratioP1;P2;durP2;ratioP2
68192;SDS011;55012;47.562;18.414;2023-05-10T00:01:57;6.18;;;3.22;;
68192;SDS011;55012;47.562;18.414;2023-05-10T00:04:23;6.95;;;3.40;;
68192;SDS011;55012;47.562;18.414;2023-05-10T00:06:52;12.50;;;5.93;;
68192;SDS011;55012;47.562;18.414;2023-05-10T00:09:18;8.48;;;3.83;;
68192;SDS011;55012;47.562;18.414;2023-05-10T00:11:43;8.18;;;5.03;;
68192;SDS011;55012;47.562;18.414;2023-05-10T00:14:09;9.25;;;5.20;;
68192;SDS011;55012;47.562;18.414;2023-05-10T00:16:34;5.88;;;3.72;;
68192;SDS011;55012;47.562;18.414;2023-05-10T00:19:00;7.13;;;3.90;;
68192;SDS011;55012;47.562;18.414;2023-05-10T00:21:25;7.03;;;3.30;;
68192;SDS011;55012;47.562;18.414;2023-05-10T00:23:53;6.75;;;4.05;;
68192;SDS011;55012;47.562;18.414;2023-05-10T00:26:18;4.88;;;3.25;;
68192;SDS011;55012;47.562;18.414;2023-05-10T00:28:44;6.43;;;4.00;;
68192;SDS011;55012;47.562;18.414;2023-05-10T00:31:10;6.93;;;4.50;;
68192;SDS011;55012;47.562;18.414;2023-05-10T00:33:35;5.30;;;3.10;;
68192;SDS011;55012;47.562;18.414;2023-05-10T00:36:01;6.82;;;4.22;;
68192;SDS011;55012;47.562;18.414;2023-05-10T00:38:26;7.55;;;4.38;;
68192;SDS011;55012;47.562;18.414;2023-05-10T00:40:52;5.53;;;3.40;;
68192;SDS011;55012;47.562;18.414;2023-05-10T00:43:17;5.80;;;3.60;;
68192;SDS011;55012;47.562;18.414;2023-05-10T00:45:43;6.63;;;4.45;;
68192;SDS011;55012;47.562;18.414;2023-05-10T00:48:08;9.25;;;4.10;;
68192;SDS011;55012;47.562;18.414;2023-05-10T00:50:34;6.50;;;4.10;;
68192;SDS011;55012;47.562;18.414;2023-05-10T00:53:00;9.23;;;4.75;;
68192;SDS011;55012;47.562;18.414;2023-05-10T00:55:27;7.28;;;4.60;;
68192;SDS011;55012;47.562;18.414;2023-05-10T00:57:53;8.32;;;4.70;;
68192;SDS011;55012;47.562;18.414;2023-05-10T01:00:19;10.50;;;4.75;;
68192;SDS011;55012;47.562;18.414;2023-05-10T01:02:45;8.00;;;5.30;;
68192;SDS011;55012;47.562;18.414;2023-05-10T01:05:11;9.30;;;5.35;;
68192;SDS011;55012;47.562;18.414;2023-05-10T01:07:37;12.45;;;6.50;;
68192;SDS011;55012;47.562;18.414;2023-05-10T01:10:03;10.57;;;5.45;;
68192;SDS011;55012;47.562;18.414;2023-05-10T01:12:30;8.25;;;4.70;;
68192;SDS011;55012;47.562;18.414;2023-05-10T01:14:55;8.05;;;4.93;;
68192;SDS011;55012;47.562;18.414;2023-05-10T01:17:22;9.65;;;4.88;;
68192;SDS011;55012;47.562;18.414;2023-05-10T01:19:48;8.88;;;4.65;;
68192;SDS011;55012;47.562;18.414;2023-05-10T01:27:14;8.20;;;4.20;;
68192;SDS011;55012;47.562;18.414;2023-05-10T01:33:17;6.30;;;4.13;;
68192;SDS011;55012;47.562;18.414;2023-05-10T01:43:48;9.25;;;4.10;;
68192;SDS011;55012;47.562;18.414;2023-05-10T01:46:24;8.00;;;4.53;;
68192;SDS011;55012;47.562;18.414;2023-05-10T01:48:58;10.60;;;4.50;;
68192;SDS011;55012;47.562;18.414;2023-05-10T01:51:27;7.68;;;4.10;;
68192;SDS011;55012;47.562;18.414;2023-05-10T01:53:59;8.10;;;4.57;;
68192;SDS011;55012;47.562;18.414;2023-05-10T01:56:28;9.23;;;4.55;;
68192;SDS011;55012;47.562;18.414;2023-05-10T01:58:56;8.25;;;4.20;;
68192;SDS011;55012;47.562;18.414;2023-05-10T02:01:22;7.22;;;4.30;;
68192;SDS011;55012;47.562;18.414;2023-05-10T02:03:51;6.95;;;4.13;;
68192;SDS011;55012;47.562;18.414;2023-05-10T02:06:18;7.55;;;4.22;;
68192;SDS011;55012;47.562;18.414;2023-05-10T02:08:46;6.82;;;4.50;;
68192;SDS011;55012;47.562;18.414;2023-05-10T02:11:14;6.38;;;3.75;;
68192;SDS011;55012;47.562;18.414;2023-05-10T02:13:40;8.15;;;4.93;;
68192;SDS011;55012;47.562;18.414;2023-05-10T02:16:07;7.28;;;4.25;;
68192;SDS011;55012;47.562;18.414;2023-05-10T02:18:33;7.20;;;4.28;;
68192;SDS011;55012;47.562;18.414;2023-05-10T02:21:01;7.90;;;4.82;;
68192;SDS011;55012;47.562;18.414;2023-05-10T02:23:28;8.23;;;4.45;;
68192;SDS011;55012;47.562;18.414;2023-05-10T02:25:56;7.63;;;3.90;;
68192;SDS011;55012;47.562;18.414;2023-05-10T02:28:23;6.13;;;4.07;;
68192;SDS011;55012;47.562;18.414;2023-05-10T02:30:51;6.47;;;4.18;;
68192;SDS011;55012;47.562;18.414;2023-05-10T02:33:17;5.75;;;3.83;;
68192;SDS011;55012;47.562;18.414;2023-05-10T02:35:45;6.07;;;3.83;;
68192;SDS011;55012;47.562;18.414;2023-05-10T02:38:11;8.75;;;4.25;;
68192;SDS011;55012;47.562;18.414;2023-05-10T02:40:39;7.68;;;4.43;;
68192;SDS011;55012;47.562;18.414;2023-05-10T02:43:06;6.25;;;4.00;;
68192;SDS011;55012;47.562;18.414;2023-05-10T02:45:37;7.82;;;4.68;;
68192;SDS011;55012;47.562;18.414;2023-05-10T02:48:04;7.55;;;4.53;;
68192;SDS011;55012;47.562;18.414;2023-05-10T02:50:30;7.22;;;4.82;;
68192;SDS011;55012;47.562;18.414;2023-05-10T02:53:02;6.53;;;4.00;;
68192;SDS011;55012;47.562;18.414;2023-05-10T02:55:38;7.13;;;4.70;;
68192;SDS011;55012;47.562;18.414;2023-05-10T02:58:06;6.28;;;4.18;;
68192;SDS011;55012;47.562;18.414;2023-05-10T03:00:31;7.10;;;4.80;;
68192;SDS011;55012;47.562;18.414;2023-05-10T03:02:57;8.70;;;5.57;;
68192;SDS011;55012;47.562;18.414;2023-05-10T03:05:22;12.18;;;7.13;;
68192;SDS011;55012;47.562;18.414;2023-05-10T03:07:48;13.20;;;6.60;;
68192;SDS011;55012;47.562;18.414;2023-05-10T03:10:14;13.43;;;6.45;;
68192;SDS011;55012;47.562;18.414;2023-05-10T03:18:51;15.02;;;8.25;;
68192;SDS011;55012;47.562;18.414;2023-05-10T03:21:22;12.57;;;7.05;;
68192;SDS011;55012;47.562;18.414;2023-05-10T03:23:57;12.40;;;7.28;;
68192;SDS011;55012;47.562;18.414;2023-05-10T03:26:27;15.38;;;9.40;;
68192;SDS011;55012;47.562;18.414;2023-05-10T03:28:53;24.63;;;13.57;;
68192;SDS011;55012;47.562;18.414;2023-05-10T03:31:20;23.50;;;13.73;;
68192;SDS011;55012;47.562;18.414;2023-05-10T03:33:46;21.23;;;12.18;;
68192;SDS011;55012;47.562;18.414;2023-05-10T03:36:16;21.95;;;13.77;;
68192;SDS011;55012;47.562;18.414;2023-05-10T03:38:42;5.57;;;3.20;;
68192;SDS011;55012;47.562;18.414;2023-05-10T03:41:07;5.50;;;3.65;;
68192;SDS011;55012;47.562;18.414;2023-05-10T03:43:33;6.10;;;3.25;;
68192;SDS011;55012;47.562;18.414;2023-05-10T03:45:58;7.75;;;3.83;;
68192;SDS011;55012;47.562;18.414;2023-05-10T03:48:26;10.27;;;5.20;;
68192;SDS011;55012;47.562;18.414;2023-05-10T03:50:51;8.82;;;4.78;;
68192;SDS011;55012;47.562;18.414;2023-05-10T03:53:17;7.85;;;4.78;;
68192;SDS011;55012;47.562;18.414;2023-05-10T03:55:42;7.38;;;4.35;;
68192;SDS011;55012;47.562;18.414;2023-05-10T03:58:10;7.22;;;4.80;;
68192;SDS011;55012;47.562;18.414;2023-05-10T04:00:36;8.73;;;5.10;;
68192;SDS011;55012;47.562;18.414;2023-05-10T04:03:02;7.93;;;4.50;;
68192;SDS011;55012;47.562;18.414;2023-05-10T04:05:27;7.70;;;4.57;;
68192;SDS011;55012;47.562;18.414;2023-05-10T04:07:52;6.60;;;4.50;;
68192;SDS011;55012;47.562;18.414;2023-05-10T04:10:18;8.32;;;4.10;;
68192;SDS011;55012;47.562;18.414;2023-05-10T04:12:44;7.97;;;4.10;;
68192;SDS011;55012;47.562;18.414;2023-05-10T04:15:09;9.05;;;4.15;;
68192;SDS011;55012;47.562;18.414;2023-05-10T04:17:35;8.38;;;3.55;;
68192;SDS011;55012;47.562;18.414;2023-05-10T04:20:00;6.68;;;3.50;;
68192;SDS011;55012;47.562;18.414;2023-05-10T04:22:26;7.53;;;3.80;;
68192;SDS011;55012;47.562;18.414;2023-05-10T04:24:52;6.88;;;3.65;;
68192;SDS011;55012;47.562;18.414;2023-05-10T04:27:18;7.00;;;4.38;;
68192;SDS011;55012;47.562;18.414;2023-05-10T04:29:43;4.57;;;3.20;;
68192;SDS011;55012;47.562;18.414;2023-05-10T04:32:09;5.43;;;3.30;;
68192;SDS011;55012;47.562;18.414;2023-05-10T04:34:35;7.72;;;5.25;;
68192;SDS011;55012;47.562;18.414;2023-05-10T04:37:01;6.50;;;3.47;;
68192;SDS011;55012;47.562;18.414;2023-05-10T04:39:26;6.68;;;3.25;;
68192;SDS011;55012;47.562;18.414;2023-05-10T04:41:52;13.27;;;8.75;;
68192;SDS011;55012;47.562;18.414;2023-05-10T04:44:17;7.30;;;3.30;;
68192;SDS011;55012;47.562;18.414;2023-05-10T04:46:43;4.57;;;3.33;;
68192;SDS011;55012;47.562;18.414;2023-05-10T04:49:08;5.38;;;3.40;;
68192;SDS011;55012;47.562;18.414;2023-05-10T04:51:34;6.97;;;3.85;;
68192;SDS011;55012;47.562;18.414;2023-05-10T04:53:59;5.65;;;3.88;;
68192;SDS011;55012;47.562;18.414;2023-05-10T04:56:25;6.60;;;4.15;;
68192;SDS011;55012;47.562;18.414;2023-05-10T04:58:50;5.70;;;3.88;;
68192;SDS011;55012;47.562;18.414;2023-05-10T05:01:16;6.60;;;4.10;;
68192;SDS011;55012;47.562;18.414;2023-05-10T05:03:42;7.55;;;4.55;;
68192;SDS011;55012;47.562;18.414;2023-05-10T05:06:07;6.25;;;3.80;;
68192;SDS011;55012;47.562;18.414;2023-05-10T05:08:33;5.93;;;4.07;;
68192;SDS011;55012;47.562;18.414;2023-05-10T05:10:58;6.85;;;4.30;;
68192;SDS011;55012;47.562;18.414;2023-05-10T05:13:24;10.90;;;5.38;;
68192;SDS011;55012;47.562;18.414;2023-05-10T05:15:49;5.18;;;3.30;;
68192;SDS011;55012;47.562;18.414;2023-05-10T05:18:15;7.47;;;4.10;;
68192;SDS011;55012;47.562;18.414;2023-05-10T05:20:40;7.30;;;3.80;;
68192;SDS011;55012;47.562;18.414;2023-05-10T05:23:06;5.95;;;3.20;;
68192;SDS011;55012;47.562;18.414;2023-05-10T05:25:31;5.82;;;3.80;;
68192;SDS011;55012;47.562;18.414;2023-05-10T05:27:57;7.28;;;4.32;;
68192;SDS011;55012;47.562;18.414;2023-05-10T05:30:22;4.85;;;3.15;;
68192;SDS011;55012;47.562;18.414;2023-05-10T05:32:48;6.20;;;3.67;;
68192;SDS011;55012;47.562;18.414;2023-05-10T05:35:13;4.50;;;3.45;;
68192;SDS011;55012;47.562;18.414;2023-05-10T05:37:39;6.03;;;3.83;;
68192;SDS011;55012;47.562;18.414;2023-05-10T05:40:05;7.60;;;4.20;;
68192;SDS011;55012;47.562;18.414;2023-05-10T05:42:31;6.18;;;4.28;;
68192;SDS011;55012;47.562;18.414;2023-05-10T05:44:57;5.68;;;3.90;;
68192;SDS011;55012;47.562;18.414;2023-05-10T05:47:22;5.90;;;3.72;;
68192;SDS011;55012;47.562;18.414;2023-05-10T05:49:47;6.43;;;3.92;;
68192;SDS011;55012;47.562;18.414;2023-05-10T05:52:13;6.53;;;4.28;;
68192;SDS011;55012;47.562;18.414;2023-05-10T05:54:38;6.45;;;3.70;;
68192;SDS011;55012;47.562;18.414;2023-05-10T05:57:04;5.18;;;3.55;;
68192;SDS011;55012;47.562;18.414;2023-05-10T05:59:30;7.93;;;4.70;;
68192;SDS011;55012;47.562;18.414;2023-05-10T06:01:55;5.13;;;3.70;;
68192;SDS011;55012;47.562;18.414;2023-05-10T06:04:20;7.45;;;3.88;;
68192;SDS011;55012;47.562;18.414;2023-05-10T06:06:46;5.82;;;3.63;;
68192;SDS011;55012;47.562;18.414;2023-05-10T06:09:12;5.40;;;4.07;;
68192;SDS011;55012;47.562;18.414;2023-05-10T06:11:37;6.65;;;4.88;;
68192;SDS011;55012;47.562;18.414;2023-05-10T06:14:03;5.38;;;3.80;;
68192;SDS011;55012;47.562;18.414;2023-05-10T06:16:31;6.00;;;3.55;;
68192;SDS011;55012;47.562;18.414;2023-05-10T06:18:57;5.45;;;3.40;;
68192;SDS011;55012;47.562;18.414;2023-05-10T06:21:22;5.05;;;3.72;;
68192;SDS011;55012;47.562;18.414;2023-05-10T06:23:48;5.97;;;3.85;;
68192;SDS011;55012;47.562;18.414;2023-05-10T06:26:13;7.28;;;4.57;;
68192;SDS011;55012;47.562;18.414;2023-05-10T06:28:39;5.47;;;3.33;;
68192;SDS011;55012;47.562;18.414;2023-05-10T06:31:05;7.03;;;3.70;;
68192;SDS011;55012;47.562;18.414;2023-05-10T06:33:31;9.60;;;3.83;;
68192;SDS011;55012;47.562;18.414;2023-05-10T06:35:57;5.15;;;3.78;;
68192;SDS011;55012;47.562;18.414;2023-05-10T06:38:22;5.72;;;3.20;;
68192;SDS011;55012;47.562;18.414;2023-05-10T06:40:51;6.80;;;3.30;;
68192;SDS011;55012;47.562;18.414;2023-05-10T06:43:17;7.07;;;3.70;;
68192;SDS011;55012;47.562;18.414;2023-05-10T06:45:43;5.72;;;3.80;;
68192;SDS011;55012;47.562;18.414;2023-05-10T06:48:08;5.93;;;4.32;;
68192;SDS011;55012;47.562;18.414;2023-05-10T06:50:34;6.68;;;4.75;;
68192;SDS011;55012;47.562;18.414;2023-05-10T06:53:00;5.53;;;3.50;;
68192;SDS011;55012;47.562;18.414;2023-05-10T06:55:26;5.22;;;3.90;;
68192;SDS011;55012;47.562;18.414;2023-05-10T06:57:52;5.78;;;3.50;;
68192;SDS011;55012;47.562;18.414;2023-05-10T07:00:18;5.07;;;2.95;;
68192;SDS011;55012;47.562;18.414;2023-05-10T07:02:44;4.85;;;3.42;;
68192;SDS011;55012;47.562;18.414;2023-05-10T07:05:09;5.35;;;4.07;;
68192;SDS011;55012;47.562;18.414;2023-05-10T07:07:35;5.28;;;3.38;;
68192;SDS011;55012;47.562;18.414;2023-05-10T07:10:00;4.57;;;2.95;;
68192;SDS011;55012;47.562;18.414;2023-05-10T07:12:26;6.05;;;3.15;;
68192;SDS011;55012;47.562;18.414;2023-05-10T07:14:52;5.10;;;3.60;;
68192;SDS011;55012;47.562;18.414;2023-05-10T07:17:18;8.00;;;4.70;;
68192;SDS011;55012;47.562;18.414;2023-05-10T07:19:43;6.07;;;3.90;;
68192;SDS011;55012;47.562;18.414;2023-05-10T07:22:09;5.63;;;4.13;;
68192;SDS011;55012;47.562;18.414;2023-05-10T07:24:34;6.50;;;4.22;;
68192;SDS011;55012;47.562;18.414;2023-05-10T07:27:00;9.07;;;5.15;;
68192;SDS011;55012;47.562;18.414;2023-05-10T07:29:25;11.73;;;5.60;;
68192;SDS011;55012;47.562;18.414;2023-05-10T07:31:51;6.47;;;3.28;;
68192;SDS011;55012;47.562;18.414;2023-05-10T07:34:17;6.72;;;3.60;;
68192;SDS011;55012;47.562;18.414;2023-05-10T07:36:42;6.15;;;3.80;;
68192;SDS011;55012;47.562;18.414;2023-05-10T07:39:09;4.18;;;3.53;;
68192;SDS011;55012;47.562;18.414;2023-05-10T07:41:34;5.97;;;3.38;;
68192;SDS011;55012;47.562;18.414;2023-05-10T07:44:00;5.38;;;3.47;;
68192;SDS011;55012;47.562;18.414;2023-05-10T07:46:26;3.97;;;2.55;;
68192;SDS011;55012;47.562;18.414;2023-05-10T07:48:51;4.97;;;3.10;;
68192;SDS011;55012;47.562;18.414;2023-05-10T07:51:16;4.40;;;2.70;;
68192;SDS011;55012;47.562;18.414;2023-05-10T07:53:42;6.07;;;3.55;;
68192;SDS011;55012;47.562;18.414;2023-05-10T07:58:50;4.30;;;2.63;;
68192;SDS011;55012;47.562;18.414;2023-05-10T08:01:16;4.97;;;3.63;;
68192;SDS011;55012;47.562;18.414;2023-05-10T08:03:42;4.03;;;2.97;;
68192;SDS011;55012;47.562;18.414;2023-05-10T08:06:08;4.35;;;3.22;;
68192;SDS011;55012;47.562;18.414;2023-05-10T08:08:33;8.75;;;3.20;;
68192;SDS011;55012;47.562;18.414;2023-05-10T08:10:58;5.22;;;2.80;;
68192;SDS011;55012;47.562;18.414;2023-05-10T08:13:24;4.65;;;3.17;;
68192;SDS011;55012;47.562;18.414;2023-05-10T08:15:49;4.22;;;2.72;;
68192;SDS011;55012;47.562;18.414;2023-05-10T08:18:17;3.88;;;2.78;;
68192;SDS011;55012;47.562;18.414;2023-05-10T08:20:43;6.65;;;2.40;;
68192;SDS011;55012;47.562;18.414;2023-05-10T08:23:09;7.18;;;3.58;;
68192;SDS011;55012;47.562;18.414;2023-05-10T08:25:34;4.82;;;3.10;;
68192;SDS011;55012;47.562;18.414;2023-05-10T08:28:00;3.42;;;2.40;;
68192;SDS011;55012;47.562;18.414;2023-05-10T08:30:25;5.47;;;3.00;;
68192;SDS011;55012;47.562;18.414;2023-05-10T08:32:51;6.53;;;2.97;;
68192;SDS011;55012;47.562;18.414;2023-05-10T08:35:16;3.60;;;2.80;;
68192;SDS011;55012;47.562;18.414;2023-05-10T08:37:41;4.13;;;3.08;;
68192;SDS011;55012;47.562;18.414;2023-05-10T08:40:07;4.03;;;2.80;;
68192;SDS011;55012;47.562;18.414;2023-05-10T08:42:36;4.80;;;2.97;;
68192;SDS011;55012;47.562;18.414;2023-05-10T08:45:06;4.40;;;3.20;;
68192;SDS011;55012;47.562;18.414;2023-05-10T08:47:33;3.45;;;2.70;;
68192;SDS011;55012;47.562;18.414;2023-05-10T08:50:01;3.20;;;2.40;;
68192;SDS011;55012;47.562;18.414;2023-05-10T08:52:27;4.53;;;3.20;;
68192;SDS011;55012;47.562;18.414;2023-05-10T08:54:55;7.63;;;3.10;;
68192;SDS011;55012;47.562;18.414;2023-05-10T08:57:20;4.53;;;2.70;;
68192;SDS011;55012;47.562;18.414;2023-05-10T08:59:46;4.32;;;3.28;;
68192;SDS011;55012;47.562;18.414;2023-05-10T09:02:11;4.18;;;3.15;;
68192;SDS011;55012;47.562;18.414;2023-05-10T09:04:38;4.60;;;3.03;;
68192;SDS011;55012;47.562;18.414;2023-05-10T09:07:04;4.30;;;3.30;;
68192;SDS011;55012;47.562;18.414;2023-05-10T09:09:31;5.15;;;3.22;;
68192;SDS011;55012;47.562;18.414;2023-05-10T09:11:56;3.97;;;2.53;;
68192;SDS011;55012;47.562;18.414;2023-05-10T09:14:23;4.80;;;3.30;;
68192;SDS011;55012;47.562;18.414;2023-05-10T09:16:49;4.93;;;2.80;;
68192;SDS011;55012;47.562;18.414;2023-05-10T09:19:15;5.53;;;3.17;;
68192;SDS011;55012;47.562;18.414;2023-05-10T09:21:41;4.63;;;3.22;;
68192;SDS011;55012;47.562;18.414;2023-05-10T09:24:07;3.92;;;3.40;;
68192;SDS011;55012;47.562;18.414;2023-05-10T09:26:33;4.55;;;3.17;;
68192;SDS011;55012;47.562;18.414;2023-05-10T09:29:00;4.25;;;3.20;;
68192;SDS011;55012;47.562;18.414;2023-05-10T09:34:34;4.20;;;3.00;;
68192;SDS011;55012;47.562;18.414;2023-05-10T09:37:01;3.60;;;2.72;;
68192;SDS011;55012;47.562;18.414;2023-05-10T09:39:32;5.78;;;3.00;;
68192;SDS011;55012;47.562;18.414;2023-05-10T09:41:59;3.38;;;3.00;;
68192;SDS011;55012;47.562;18.414;2023-05-10T09:44:26;4.60;;;3.40;;
68192;SDS011;55012;47.562;18.414;2023-05-10T09:46:52;3.40;;;3.10;;
68192;SDS011;55012;47.562;18.414;2023-05-10T09:49:20;3.45;;;2.60;;
68192;SDS011;55012;47.562;18.414;2023-05-10T09:51:47;4.65;;;3.05;;
68192;SDS011;55012;47.562;18.414;2023-05-10T09:54:24;3.83;;;2.83;;
68192;SDS011;55012;47.562;18.414;2023-05-10T09:56:49;4.90;;;3.05;;
68192;SDS011;55012;47.562;18.414;2023-05-10T09:59:15;4.05;;;3.05;;
68192;SDS011;55012;47.562;18.414;2023-05-10T10:01:42;4.53;;;2.50;;
68192;SDS011;55012;47.562;18.414;2023-05-10T10:04:14;5.70;;;3.00;;
68192;SDS011;55012;47.562;18.414;2023-05-10T10:06:41;4.00;;;3.22;;
68192;SDS011;55012;47.562;18.414;2023-05-10T10:09:06;5.18;;;3.63;;
68192;SDS011;55012;47.562;18.414;2023-05-10T10:11:36;6.55;;;2.85;;
68192;SDS011;55012;47.562;18.414;2023-05-10T10:14:03;3.50;;;2.78;;
68192;SDS011;55012;47.562;18.414;2023-05-10T10:16:30;4.20;;;2.88;;
68192;SDS011;55012;47.562;18.414;2023-05-10T10:18:57;4.18;;;2.92;;
68192;SDS011;55012;47.562;18.414;2023-05-10T10:21:23;3.65;;;2.63;;
68192;SDS011;55012;47.562;18.414;2023-05-10T10:23:49;3.63;;;3.10;;
68192;SDS011;55012;47.562;18.414;2023-05-10T10:26:15;3.20;;;2.67;;
68192;SDS011;55012;47.562;18.414;2023-05-10T10:33:55;4.90;;;2.85;;
68192;SDS011;55012;47.562;18.414;2023-05-10T10:36:24;3.30;;;2.72;;
68192;SDS011;55012;47.562;18.414;2023-05-10T10:41:32;4.63;;;2.97;;
68192;SDS011;55012;47.562;18.414;2023-05-10T10:57:25;4.20;;;2.40;;
68192;SDS011;55012;47.562;18.414;2023-05-10T10:59:53;4.18;;;2.75;;
68192;SDS011;55012;47.562;18.414;2023-05-10T11:02:47;5.95;;;2.80;;
68192;SDS011;55012;47.562;18.414;2023-05-10T11:05:24;4.63;;;2.67;;
68192;SDS011;55012;47.562;18.414;2023-05-10T11:07:51;4.20;;;2.67;;
68192;SDS011;55012;47.562;18.414;2023-05-10T11:10:24;4.55;;;2.70;;
68192;SDS011;55012;47.562;18.414;2023-05-10T11:13:00;5.32;;;2.70;;
68192;SDS011;55012;47.562;18.414;2023-05-10T11:15:36;4.25;;;2.83;;
68192;SDS011;55012;47.562;18.414;2023-05-10T11:18:17;5.30;;;2.97;;
68192;SDS011;55012;47.562;18.414;2023-05-10T11:20:44;3.83;;;2.40;;
68192;SDS011;55012;47.562;18.414;2023-05-10T11:23:14;3.45;;;2.65;;
68192;SDS011;55012;47.562;18.414;2023-05-10T11:25:44;5.15;;;2.90;;
68192;SDS011;55012;47.562;18.414;2023-05-10T11:28:11;5.45;;;2.63;;
68192;SDS011;55012;47.562;18.414;2023-05-10T11:30:41;3.40;;;2.78;;
68192;SDS011;55012;47.562;18.414;2023-05-10T11:33:08;4.70;;;2.67;;
68192;SDS011;55012;47.562;18.414;2023-05-10T11:35:37;4.95;;;3.00;;
68192;SDS011;55012;47.562;18.414;2023-05-10T11:38:07;3.55;;;2.60;;
68192;SDS011;55012;47.562;18.414;2023-05-10T11:40:37;3.60;;;2.67;;
68192;SDS011;55012;47.562;18.414;2023-05-10T11:43:03;3.08;;;2.40;;
68192;SDS011;55012;47.562;18.414;2023-05-10T11:45:29;4.35;;;2.65;;
68192;SDS011;55012;47.562;18.414;2023-05-10T11:47:58;4.25;;;2.70;;
68192;SDS011;55012;47.562;18.414;2023-05-10T11:50:24;4.20;;;2.50;;
68192;SDS011;55012;47.562;18.414;2023-05-10T11:52:54;6.18;;;2.70;;
68192;SDS011;55012;47.562;18.414;2023-05-10T11:55:21;2.92;;;2.45;;
68192;SDS011;55012;47.562;18.414;2023-05-10T11:57:47;3.53;;;2.70;;
68192;SDS011;55012;47.562;18.414;2023-05-10T12:00:13;3.55;;;2.58;;
68192;SDS011;55012;47.562;18.414;2023-05-10T12:02:39;2.95;;;2.33;;
68192;SDS011;55012;47.562;18.414;2023-05-10T12:05:05;4.25;;;2.53;;
68192;SDS011;55012;47.562;18.414;2023-05-10T12:07:31;3.15;;;2.50;;
68192;SDS011;55012;47.562;18.414;2023-05-10T12:10:07;2.85;;;2.10;;
68192;SDS011;55012;47.562;18.414;2023-05-10T12:12:39;3.75;;;2.50;;
68192;SDS011;55012;47.562;18.414;2023-05-10T12:15:22;3.30;;;2.20;;
68192;SDS011;55012;47.562;18.414;2023-05-10T12:17:49;2.70;;;2.20;;
68192;SDS011;55012;47.562;18.414;2023-05-10T12:22:51;3.13;;;2.25;;
68192;SDS011;55012;47.562;18.414;2023-05-10T12:25:19;3.08;;;2.40;;
68192;SDS011;55012;47.562;18.414;2023-05-10T12:27:55;3.30;;;2.13;;
68192;SDS011;55012;47.562;18.414;2023-05-10T12:30:23;2.65;;;2.20;;
68192;SDS011;55012;47.562;18.414;2023-05-10T12:32:52;2.63;;;2.10;;
68192;SDS011;55012;47.562;18.414;2023-05-10T12:35:19;5.82;;;2.42;;
68192;SDS011;55012;47.562;18.414;2023-05-10T12:37:49;3.13;;;2.20;;
68192;SDS011;55012;47.562;18.414;2023-05-10T12:40:15;3.92;;;2.25;;
68192;SDS011;55012;47.562;18.414;2023-05-10T12:42:41;4.10;;;2.33;;
68192;SDS011;55012;47.562;18.414;2023-05-10T12:45:07;4.05;;;2.40;;
68192;SDS011;55012;47.562;18.414;2023-05-10T12:47:33;3.65;;;2.40;;
68192;SDS011;55012;47.562;18.414;2023-05-10T12:49:59;3.25;;;2.40;;
68192;SDS011;55012;47.562;18.414;2023-05-10T12:52:26;4.00;;;2.40;;
68192;SDS011;55012;47.562;18.414;2023-05-10T12:54:52;3.40;;;2.28;;
68192;SDS011;55012;47.562;18.414;2023-05-10T12:57:18;3.67;;;2.50;;
68192;SDS011;55012;47.562;18.414;2023-05-10T12:59:45;4.50;;;2.70;;
68192;SDS011;55012;47.562;18.414;2023-05-10T13:02:10;3.17;;;2.15;;
68192;SDS011;55012;47.562;18.414;2023-05-10T13:04:36;6.68;;;2.60;;
68192;SDS011;55012;47.562;18.414;2023-05-10T13:07:05;3.95;;;2.10;;
68192;SDS011;55012;47.562;18.414;2023-05-10T13:09:33;4.05;;;2.42;;
68192;SDS011;55012;47.562;18.414;2023-05-10T13:11:59;6.30;;;2.50;;
68192;SDS011;55012;47.562;18.414;2023-05-10T13:14:25;5.45;;;2.30;;
68192;SDS011;55012;47.562;18.414;2023-05-10T13:16:51;6.47;;;2.65;;
68192;SDS011;55012;47.562;18.414;2023-05-10T13:19:16;3.67;;;2.45;;
68192;SDS011;55012;47.562;18.414;2023-05-10T13:21:43;4.68;;;2.40;;
68192;SDS011;55012;47.562;18.414;2023-05-10T13:24:09;3.40;;;2.55;;
68192;SDS011;55012;47.562;18.414;2023-05-10T13:26:36;2.92;;;1.98;;
68192;SDS011;55012;47.562;18.414;2023-05-10T13:29:02;3.22;;;2.53;;
68192;SDS011;55012;47.562;18.414;2023-05-10T13:31:28;4.55;;;2.03;;
68192;SDS011;55012;47.562;18.414;2023-05-10T13:33:54;3.35;;;2.25;;
68192;SDS011;55012;47.562;18.414;2023-05-10T13:36:19;4.13;;;1.95;;
68192;SDS011;55012;47.562;18.414;2023-05-10T13:38:45;3.03;;;2.15;;
68192;SDS011;55012;47.562;18.414;2023-05-10T13:41:10;4.43;;;2.15;;
68192;SDS011;55012;47.562;18.414;2023-05-10T13:43:36;4.85;;;2.30;;
68192;SDS011;55012;47.562;18.414;2023-05-10T13:46:01;3.47;;;1.90;;
68192;SDS011;55012;47.562;18.414;2023-05-10T13:48:27;3.65;;;2.40;;
68192;SDS011;55012;47.562;18.414;2023-05-10T13:50:53;3.15;;;2.50;;
68192;SDS011;55012;47.562;18.414;2023-05-10T13:53:19;5.25;;;2.40;;
68192;SDS011;55012;47.562;18.414;2023-05-10T13:55:44;3.92;;;2.45;;
68192;SDS011;55012;47.562;18.414;2023-05-10T13:58:10;4.15;;;2.40;;
68192;SDS011;55012;47.562;18.414;2023-05-10T14:00:35;4.72;;;2.85;;
68192;SDS011;55012;47.562;18.414;2023-05-10T14:03:01;4.68;;;2.45;;
68192;SDS011;55012;47.562;18.414;2023-05-10T14:05:27;5.55;;;2.90;;
68192;SDS011;55012;47.562;18.414;2023-05-10T14:07:52;3.88;;;2.80;;
68192;SDS011;55012;47.562;18.414;2023-05-10T14:10:18;3.97;;;2.65;;
68192;SDS011;55012;47.562;18.414;2023-05-10T14:12:44;4.28;;;2.70;;
68192;SDS011;55012;47.562;18.414;2023-05-10T14:15:10;6.18;;;2.60;;
68192;SDS011;55012;47.562;18.414;2023-05-10T14:17:36;4.28;;;2.50;;
68192;SDS011;55012;47.562;18.414;2023-05-10T14:20:02;4.07;;;2.83;;
68192;SDS011;55012;47.562;18.414;2023-05-10T14:22:28;4.00;;;2.60;;
68192;SDS011;55012;47.562;18.414;2023-05-10T14:24:54;3.90;;;2.28;;
68192;SDS011;55012;47.562;18.414;2023-05-10T14:27:20;3.05;;;2.40;;
68192;SDS011;55012;47.562;18.414;2023-05-10T14:29:46;5.07;;;2.30;;
68192;SDS011;55012;47.562;18.414;2023-05-10T14:32:12;3.30;;;2.20;;
68192;SDS011;55012;47.562;18.414;2023-05-10T14:34:37;3.97;;;2.42;;
68192;SDS011;55012;47.562;18.414;2023-05-10T14:37:03;8.30;;;2.50;;
68192;SDS011;55012;47.562;18.414;2023-05-10T14:39:29;4.60;;;2.38;;
68192;SDS011;55012;47.562;18.414;2023-05-10T14:41:55;3.38;;;2.13;;
68192;SDS011;55012;47.562;18.414;2023-05-10T14:44:20;3.20;;;2.25;;
68192;SDS011;55012;47.562;18.414;2023-05-10T14:46:46;3.50;;;2.30;;
68192;SDS011;55012;47.562;18.414;2023-05-10T14:49:13;4.63;;;2.05;;
68192;SDS011;55012;47.562;18.414;2023-05-10T14:51:38;4.43;;;2.28;;
68192;SDS011;55012;47.562;18.414;2023-05-10T14:54:04;3.38;;;2.28;;
68192;SDS011;55012;47.562;18.414;2023-05-10T14:56:29;4.07;;;2.20;;
68192;SDS011;55012;47.562;18.414;2023-05-10T14:58:55;2.28;;;2.03;;
68192;SDS011;55012;47.562;18.414;2023-05-10T15:01:20;3.28;;;2.03;;
68192;SDS011;55012;47.562;18.414;2023-05-10T15:03:46;4.07;;;2.20;;
68192;SDS011;55012;47.562;18.414;2023-05-10T15:06:13;2.55;;;2.15;;
68192;SDS011;55012;47.562;18.414;2023-05-10T15:08:39;3.40;;;2.20;;
68192;SDS011;55012;47.562;18.414;2023-05-10T15:11:04;4.22;;;2.17;;
68192;SDS011;55012;47.562;18.414;2023-05-10T15:13:30;2.70;;;1.70;;
68192;SDS011;55012;47.562;18.414;2023-05-10T15:15:55;4.10;;;2.10;;
68192;SDS011;55012;47.562;18.414;2023-05-10T15:18:21;3.00;;;1.90;;
68192;SDS011;55012;47.562;18.414;2023-05-10T15:20:46;3.90;;;2.20;;
68192;SDS011;55012;47.562;18.414;2023-05-10T15:23:12;6.57;;;2.38;;